FALA

Lanseria Airport

Johannesburg, South Africa
METAR FALA 222000Z VRB03KT CAVOK 14/06 Q1024 NOSIG
Observed Flight Rules
Apr-22 @ 20:00 UTC (2 hours ago) Visual Flight Rules
Wind Visibility Clouds
Variable at 3 knots 10,000+ meters
  • Clear skies
Temperatures Readings
Current 14°C / 57°F
Dewpoint 6°C / 43°F
Humidity 59%
Altimeter 30.24" Hg
Pressure 1024 hPa
Elevation 1377
METAR FALA 222000Z VRB03KT CAVOK 14/06 Q1024 NOSIG
Observed Flight Rules
Apr-22 @ 20:00 UTC
(2 hours ago)
VFR
Wind Visibility
Variable at 3 knots 10,000+ meters
Clouds
  • Clear skies
Temperature Dewpoint
14°C / 57°F 6°C / 43°F
Humidity Altimeter Pressure
59% 30.24" Hg 1024 hPa